Celebrity Mercury — 9HJG9 — position and weather

sailwx.info

Track history (hours):
 
Tides and Currents Weather Stations Pressure Air Temp Water Temp Dewpoint Dewpoint Depression Visibility Wind Speed Wind Dir Waves Ship Positions

Celebrity Mercury

Last reported at 2020-Jan-18 02:00 UTC. Time now 2020-Jan-18 14:35 UTC.
Position N 29°12' W 016°54'.

Length 264 m; draft 8.5 m.

Type: Passenger vessel. MMSI: 249053000.

Wind from 090 at 23 knots

Barometer 1030.0 mb
Air temperature 18.0 ° C
Visibility: greater than 27.0 NM
Dewpoint 12.5 ° C
Water temperature 21.1 ° C

Date/timePositionNaut miles runAvg speedWind from/ knotsBaromVisibWave heightAir tempDewpointWater temp
2020-Jan-18 02:00N 29°12' W 016°54'1091.8 090 / 231030.027.0 18.012.521.1
2020-Jan-18 01:53N 29°21' W 016°59'1416.3
2020-Jan-18 01:00N 29°36' W 016°59'1816.2
2020-Jan-17 23:54N 29°54' W 016°58'1920.6
2020-Jan-17 23:00N 30°12' W 016°54'7815.6 180 / 161030.0 19.0 23.0
2020-Jan-17 18:00N 31°30' W 016°54'   110 / 21029.010.8 20.0 23.0
2020-Jan-15 03:00N 33°18' W 018°18'6911.5 230 / 251019.010.8 18.714.720.9
2020-Jan-14 21:00N 34°00' W 019°24'26314.6 220 / 251017.010.8 18.0 23.0
2020-Jan-14 03:00N 36°30' W 023°48'4020.1 220 / 301015.010.8 17.114.219.5
2020-Jan-14 01:01N 36°53' W 024°28'7616.9
2020-Jan-13 20:30N 37°44' W 025°40'0 0.0
2020-Jan-13 17:58N 37°44' W 025°40'0 0.0
2020-Jan-13 16:58N 37°44' W 025°40'0 0.0
2020-Jan-13 11:58N 37°44' W 025°40'0 0.0
2020-Jan-13 10:58N 37°44' W 025°40'1 0.3
2020-Jan-13 08:00N 37°43' W 025°40'12 8.1
2020-Jan-13 06:31N 37°43' W 025°55'11 7.6
2020-Jan-13 05:01N 37°48' W 026°08'4 8.3
2020-Jan-13 04:30N 37°52' W 026°11'4 8.3
2020-Jan-13 04:00N 37°55' W 026°13'4 8.3
2020-Jan-13 03:30N 37°59' W 026°14'2 4.0
2020-Jan-13 03:00N 38°00' W 026°12'1313.4 250 / 201026.010.8 14.7 9.219.3
2020-Jan-13 02:00N 38°10' W 026°23'4 8.1
2020-Jan-13 01:30N 38°13' W 026°26'8 7.8
2020-Jan-13 00:30N 38°19' W 026°32'34 7.8
2020-Jan-12 20:08N 38°43' W 027°03'0 0.0
2020-Jan-12 08:06N 38°43' W 027°03'1110.1
2020-Jan-12 06:59N 38°34' W 026°55'4912.4
2020-Jan-12 03:01N 37°51' W 026°25'10628.7
2020-Jan-12 03:00N 37°42' W 026°18'18 9.1 1033.010.8 13.9 8.819.7
2020-Jan-12 01:00N 37°26' W 026°09'1414.2
2020-Jan-12 00:00N 37°14' W 025°58'1414.0
2020-Jan-11 23:00N 37°04' W 025°45'714.0
2020-Jan-11 22:30N 36°59' W 025°39'1414.0
2020-Jan-11 21:30N 36°49' W 025°27'714.6
2020-Jan-11 21:01N 36°44' W 025°21'5814.6
2020-Jan-11 17:00N 36°02' W 024°31'13842.6
2020-Jan-11 17:00N 35°54' W 024°18'7013.9 360 / 181030.010.8 17.915.220.3
2020-Jan-11 12:00N 35°00' W 023°24'32115.3 280 / 191032.0 5.4 19.0 24.0
2020-Jan-10 15:00N 31°12' W 018°54'21014.8 040 / 201029.010.8 19.315.521.1
2020-Jan-10 00:47N 28°40' W 016°07'13 5.6
2020-Jan-09 22:30N 28°28' W 016°15'0 0.0
2020-Jan-09 18:59N 28°28' W 016°15'0 0.0
2020-Jan-09 17:30N 28°28' W 016°15'0 0.0
2020-Jan-09 14:28N 28°28' W 016°15'0 0.0
2020-Jan-09 09:29N 28°28' W 016°15'0 0.0
2020-Jan-09 08:59N 28°28' W 016°15'0 0.0
2020-Jan-09 08:28N 28°28' W 016°15'8 1.5
2020-Jan-09 03:31N 28°25' W 016°07'1212.3
2020-Jan-09 02:30N 28°13' W 016°02'29916.1
2020-Jan-08 08:00N 23°48' W 018°36'7615.3 070 / 331023.0 5.4 19.0 24.0
2020-Jan-08 03:00N 22°42' W 019°18'   070 / 361022.027.0 18.8 7.520.8
Track history (hours):
 
Tides and Currents Weather Stations Pressure Air Temp Water Temp Dewpoint Dewpoint Depression Visibility Wind Speed Wind Dir Waves Ship Positions

Celebrity Mercury

Last reported at 2020-Jan-18 02:00 UTC. Time now 2020-Jan-18 14:35 UTC.
Position N 29°12' W 016°54'.

Length 264 m; draft 8.5 m.

Type: Passenger vessel. MMSI: 249053000.

Wind from 090 at 23 knots

Barometer 1030.0 mb
Air temperature 18.0 ° C
Visibility: greater than 27.0 NM
Dewpoint 12.5 ° C
Water temperature 21.1 ° C

Date/timePositionNaut miles runAvg speedWind from/ knotsBaromVisibWave heightAir tempDewpointWater temp
2020-Jan-18 02:00N 29°12' W 016°54'1091.8 090 / 231030.027.0 18.012.521.1
2020-Jan-18 01:53N 29°21' W 016°59'1416.3
2020-Jan-18 01:00N 29°36' W 016°59'1816.2
2020-Jan-17 23:54N 29°54' W 016°58'1920.6
2020-Jan-17 23:00N 30°12' W 016°54'7815.6 180 / 161030.0 19.0 23.0
2020-Jan-17 18:00N 31°30' W 016°54'   110 / 21029.010.8 20.0 23.0
2020-Jan-15 03:00N 33°18' W 018°18'6911.5 230 / 251019.010.8 18.714.720.9
2020-Jan-14 21:00N 34°00' W 019°24'26314.6 220 / 251017.010.8 18.0 23.0
2020-Jan-14 03:00N 36°30' W 023°48'4020.1 220 / 301015.010.8 17.114.219.5
2020-Jan-14 01:01N 36°53' W 024°28'7616.9
2020-Jan-13 20:30N 37°44' W 025°40'0 0.0
2020-Jan-13 17:58N 37°44' W 025°40'0 0.0
2020-Jan-13 16:58N 37°44' W 025°40'0 0.0
2020-Jan-13 11:58N 37°44' W 025°40'0 0.0
2020-Jan-13 10:58N 37°44' W 025°40'1 0.3
2020-Jan-13 08:00N 37°43' W 025°40'12 8.1
2020-Jan-13 06:31N 37°43' W 025°55'11 7.6
2020-Jan-13 05:01N 37°48' W 026°08'4 8.3
2020-Jan-13 04:30N 37°52' W 026°11'4 8.3
2020-Jan-13 04:00N 37°55' W 026°13'4 8.3
2020-Jan-13 03:30N 37°59' W 026°14'2 4.0
2020-Jan-13 03:00N 38°00' W 026°12'1313.4 250 / 201026.010.8 14.7 9.219.3
2020-Jan-13 02:00N 38°10' W 026°23'4 8.1
2020-Jan-13 01:30N 38°13' W 026°26'8 7.8
2020-Jan-13 00:30N 38°19' W 026°32'34 7.8
2020-Jan-12 20:08N 38°43' W 027°03'0 0.0
2020-Jan-12 08:06N 38°43' W 027°03'1110.1
2020-Jan-12 06:59N 38°34' W 026°55'4912.4
2020-Jan-12 03:01N 37°51' W 026°25'10628.7
2020-Jan-12 03:00N 37°42' W 026°18'18 9.1 1033.010.8 13.9 8.819.7
2020-Jan-12 01:00N 37°26' W 026°09'1414.2
2020-Jan-12 00:00N 37°14' W 025°58'1414.0
2020-Jan-11 23:00N 37°04' W 025°45'714.0
2020-Jan-11 22:30N 36°59' W 025°39'1414.0
2020-Jan-11 21:30N 36°49' W 025°27'714.6
2020-Jan-11 21:01N 36°44' W 025°21'5814.6
2020-Jan-11 17:00N 36°02' W 024°31'13842.6
2020-Jan-11 17:00N 35°54' W 024°18'7013.9 360 / 181030.010.8 17.915.220.3
2020-Jan-11 12:00N 35°00' W 023°24'32115.3 280 / 191032.0 5.4 19.0 24.0
2020-Jan-10 15:00N 31°12' W 018°54'21014.8 040 / 201029.010.8 19.315.521.1
2020-Jan-10 00:47N 28°40' W 016°07'13 5.6
2020-Jan-09 22:30N 28°28' W 016°15'0 0.0
2020-Jan-09 18:59N 28°28' W 016°15'0 0.0
2020-Jan-09 17:30N 28°28' W 016°15'0 0.0
2020-Jan-09 14:28N 28°28' W 016°15'0 0.0
2020-Jan-09 09:29N 28°28' W 016°15'0 0.0
2020-Jan-09 08:59N 28°28' W 016°15'0 0.0
2020-Jan-09 08:28N 28°28' W 016°15'8 1.5
2020-Jan-09 03:31N 28°25' W 016°07'1212.3
2020-Jan-09 02:30N 28°13' W 016°02'29916.1
2020-Jan-08 08:00N 23°48' W 018°36'7615.3 070 / 331023.0 5.4 19.0 24.0
2020-Jan-08 03:00N 22°42' W 019°18'   070 / 361022.027.0 18.8 7.520.8

Dump ship's entire track history